Los Sarmientos, Argentina
Current Conditions -  °F | °C
As of 10:00 PM on Sunday 21 Dec 2014 (Local Time) from SANT Reporting Station
Overcast Overcast  
Wind Chill: 66°   Ceiling: 3000
Heat Index: 66°   Visibility: 6mi
Dew Point: 55°   Wind: 10mph
Humidity: 68%   Direction: 180°S
Pressure: 30.03"   Gusts: NA
Location:  27.4°S, 65.68°W
Report Text: SANT 220100Z 18009KT 9999 BKN030 OVC10019/13 Q1017
Loading
Personal Weather Stations






























Interactive Weather Map New forecast layout! Learn more

10-Day Weather Forecast

Advertisements
Track Severe Weather on mobile